sensor_id;sensor_type;location;lat;lon;timestamp;temperature;humidity
4874;DHT22;2451;49.970;9.068;2022-07-21T00:00:24;22.00;99.90
4874;DHT22;2451;49.970;9.068;2022-07-21T00:02:50;21.90;99.90
4874;DHT22;2451;49.970;9.068;2022-07-21T00:05:16;21.90;99.90
4874;DHT22;2451;49.970;9.068;2022-07-21T00:07:42;21.90;99.90
4874;DHT22;2451;49.970;9.068;2022-07-21T00:10:08;21.90;99.90
4874;DHT22;2451;49.970;9.068;2022-07-21T00:12:34;21.90;99.90
4874;DHT22;2451;49.970;9.068;2022-07-21T00:15:00;21.90;99.90
4874;DHT22;2451;49.970;9.068;2022-07-21T00:17:26;22.00;99.90
4874;DHT22;2451;49.970;9.068;2022-07-21T00:19:51;22.00;99.90
4874;DHT22;2451;49.970;9.068;2022-07-21T00:22:17;22.00;99.90
4874;DHT22;2451;49.970;9.068;2022-07-21T00:24:42;21.90;99.90
4874;DHT22;2451;49.970;9.068;2022-07-21T00:27:08;21.90;99.90
4874;DHT22;2451;49.970;9.068;2022-07-21T00:29:33;22.00;99.90
4874;DHT22;2451;49.970;9.068;2022-07-21T00:31:59;21.90;99.90
4874;DHT22;2451;49.970;9.068;2022-07-21T00:34:26;21.80;99.90
4874;DHT22;2451;49.970;9.068;2022-07-21T00:36:51;21.80;99.90
4874;DHT22;2451;49.970;9.068;2022-07-21T00:39:17;21.80;99.90
4874;DHT22;2451;49.970;9.068;2022-07-21T00:41:42;21.80;99.90
4874;DHT22;2451;49.970;9.068;2022-07-21T00:44:20;21.80;99.90
4874;DHT22;2451;49.970;9.068;2022-07-21T00:46:45;21.70;99.90
4874;DHT22;2451;49.970;9.068;2022-07-21T00:49:11;21.70;99.90
4874;DHT22;2451;49.970;9.068;2022-07-21T00:51:36;21.70;99.90
4874;DHT22;2451;49.970;9.068;2022-07-21T00:54:02;21.70;99.90
4874;DHT22;2451;49.970;9.068;2022-07-21T00:56:28;21.70;99.90
4874;DHT22;2451;49.970;9.068;2022-07-21T00:58:53;21.60;99.90
4874;DHT22;2451;49.970;9.068;2022-07-21T01:01:19;21.60;99.90
4874;DHT22;2451;49.970;9.068;2022-07-21T01:03:44;21.60;99.90
4874;DHT22;2451;49.970;9.068;2022-07-21T01:06:10;21.70;99.90
4874;DHT22;2451;49.970;9.068;2022-07-21T01:08:36;21.60;99.90
4874;DHT22;2451;49.970;9.068;2022-07-21T01:11:01;21.60;99.90
4874;DHT22;2451;49.970;9.068;2022-07-21T01:13:28;21.60;99.90
4874;DHT22;2451;49.970;9.068;2022-07-21T01:15:55;21.60;99.90
4874;DHT22;2451;49.970;9.068;2022-07-21T01:18:20;21.60;99.90
4874;DHT22;2451;49.970;9.068;2022-07-21T01:20:52;21.60;99.90
4874;DHT22;2451;49.970;9.068;2022-07-21T01:23:19;21.70;99.90
4874;DHT22;2451;49.970;9.068;2022-07-21T01:25:49;21.70;99.90
4874;DHT22;2451;49.970;9.068;2022-07-21T01:28:15;21.60;99.90
4874;DHT22;2451;49.970;9.068;2022-07-21T01:30:41;21.60;99.90
4874;DHT22;2451;49.970;9.068;2022-07-21T01:33:07;21.70;99.90
4874;DHT22;2451;49.970;9.068;2022-07-21T01:35:32;21.60;99.90
4874;DHT22;2451;49.970;9.068;2022-07-21T01:37:59;21.60;99.90
4874;DHT22;2451;49.970;9.068;2022-07-21T01:40:25;21.60;99.90
4874;DHT22;2451;49.970;9.068;2022-07-21T01:43:09;21.60;99.90
4874;DHT22;2451;49.970;9.068;2022-07-21T01:45:35;21.60;99.90
4874;DHT22;2451;49.970;9.068;2022-07-21T01:48:00;21.60;99.90
4874;DHT22;2451;49.970;9.068;2022-07-21T01:50:26;21.50;99.90
4874;DHT22;2451;49.970;9.068;2022-07-21T01:52:56;21.50;99.90
4874;DHT22;2451;49.970;9.068;2022-07-21T01:55:23;21.40;99.90
4874;DHT22;2451;49.970;9.068;2022-07-21T01:57:48;21.30;99.90
4874;DHT22;2451;49.970;9.068;2022-07-21T02:00:14;21.20;99.90
4874;DHT22;2451;49.970;9.068;2022-07-21T02:02:40;21.10;99.90
4874;DHT22;2451;49.970;9.068;2022-07-21T02:05:06;21.00;99.90
4874;DHT22;2451;49.970;9.068;2022-07-21T02:07:32;20.90;99.90
4874;DHT22;2451;49.970;9.068;2022-07-21T02:09:57;20.90;99.90
4874;DHT22;2451;49.970;9.068;2022-07-21T02:12:23;20.80;99.90
4874;DHT22;2451;49.970;9.068;2022-07-21T02:14:49;20.80;99.90
4874;DHT22;2451;49.970;9.068;2022-07-21T02:17:14;20.80;99.90
4874;DHT22;2451;49.970;9.068;2022-07-21T02:19:40;20.90;99.90
4874;DHT22;2451;49.970;9.068;2022-07-21T02:22:06;20.90;99.90
4874;DHT22;2451;49.970;9.068;2022-07-21T02:24:31;20.90;99.90
4874;DHT22;2451;49.970;9.068;2022-07-21T02:26:57;20.90;99.90
4874;DHT22;2451;49.970;9.068;2022-07-21T02:29:23;20.90;99.90
4874;DHT22;2451;49.970;9.068;2022-07-21T02:31:48;20.90;99.90
4874;DHT22;2451;49.970;9.068;2022-07-21T02:34:14;20.90;99.90
4874;DHT22;2451;49.970;9.068;2022-07-21T02:36:40;20.90;99.90
4874;DHT22;2451;49.970;9.068;2022-07-21T02:39:05;20.80;99.90
4874;DHT22;2451;49.970;9.068;2022-07-21T02:41:31;20.80;99.90
4874;DHT22;2451;49.970;9.068;2022-07-21T02:43:56;20.90;99.90
4874;DHT22;2451;49.970;9.068;2022-07-21T02:46:22;20.90;99.90
4874;DHT22;2451;49.970;9.068;2022-07-21T02:48:48;20.90;99.90
4874;DHT22;2451;49.970;9.068;2022-07-21T02:51:13;20.90;99.90
4874;DHT22;2451;49.970;9.068;2022-07-21T02:53:39;20.90;99.90
4874;DHT22;2451;49.970;9.068;2022-07-21T02:56:04;21.00;99.90
4874;DHT22;2451;49.970;9.068;2022-07-21T02:58:30;21.00;99.90
4874;DHT22;2451;49.970;9.068;2022-07-21T03:00:58;20.90;99.90
4874;DHT22;2451;49.970;9.068;2022-07-21T03:03:27;20.90;99.90
4874;DHT22;2451;49.970;9.068;2022-07-21T03:05:53;20.80;99.90
4874;DHT22;2451;49.970;9.068;2022-07-21T03:08:20;20.80;99.90
4874;DHT22;2451;49.970;9.068;2022-07-21T03:10:46;20.70;99.90
4874;DHT22;2451;49.970;9.068;2022-07-21T03:13:12;20.70;99.90
4874;DHT22;2451;49.970;9.068;2022-07-21T03:15:38;20.80;99.90
4874;DHT22;2451;49.970;9.068;2022-07-21T03:18:04;20.80;99.90
4874;DHT22;2451;49.970;9.068;2022-07-21T03:20:32;20.80;99.90
4874;DHT22;2451;49.970;9.068;2022-07-21T03:22:58;20.80;99.90
4874;DHT22;2451;49.970;9.068;2022-07-21T03:25:24;20.70;99.90
4874;DHT22;2451;49.970;9.068;2022-07-21T03:27:50;20.70;99.90
4874;DHT22;2451;49.970;9.068;2022-07-21T03:30:16;20.70;99.90
4874;DHT22;2451;49.970;9.068;2022-07-21T03:32:43;20.70;99.90
4874;DHT22;2451;49.970;9.068;2022-07-21T03:35:10;20.60;99.90
4874;DHT22;2451;49.970;9.068;2022-07-21T03:37:41;20.60;99.90
4874;DHT22;2451;49.970;9.068;2022-07-21T03:40:09;20.50;99.90
4874;DHT22;2451;49.970;9.068;2022-07-21T03:42:34;20.50;99.90
4874;DHT22;2451;49.970;9.068;2022-07-21T03:45:00;20.50;99.90
4874;DHT22;2451;49.970;9.068;2022-07-21T03:47:25;20.50;99.90
4874;DHT22;2451;49.970;9.068;2022-07-21T03:49:51;20.50;99.90
4874;DHT22;2451;49.970;9.068;2022-07-21T03:52:18;20.40;99.90
4874;DHT22;2451;49.970;9.068;2022-07-21T03:54:43;20.40;99.90
4874;DHT22;2451;49.970;9.068;2022-07-21T03:57:09;20.40;99.90
4874;DHT22;2451;49.970;9.068;2022-07-21T03:59:34;20.40;99.90
4874;DHT22;2451;49.970;9.068;2022-07-21T04:02:00;20.30;99.90
4874;DHT22;2451;49.970;9.068;2022-07-21T04:04:25;20.30;99.90
4874;DHT22;2451;49.970;9.068;2022-07-21T04:06:51;20.30;99.90
4874;DHT22;2451;49.970;9.068;2022-07-21T04:09:16;20.30;99.90
4874;DHT22;2451;49.970;9.068;2022-07-21T04:11:43;20.30;99.90
4874;DHT22;2451;49.970;9.068;2022-07-21T04:14:08;20.30;99.90
4874;DHT22;2451;49.970;9.068;2022-07-21T04:16:34;20.30;99.90
4874;DHT22;2451;49.970;9.068;2022-07-21T04:18:59;20.30;99.90
4874;DHT22;2451;49.970;9.068;2022-07-21T04:21:25;20.40;99.90
4874;DHT22;2451;49.970;9.068;2022-07-21T04:23:50;20.40;99.90
4874;DHT22;2451;49.970;9.068;2022-07-21T04:26:16;20.40;99.90
4874;DHT22;2451;49.970;9.068;2022-07-21T04:28:41;20.50;99.90
4874;DHT22;2451;49.970;9.068;2022-07-21T04:31:07;20.50;99.90
4874;DHT22;2451;49.970;9.068;2022-07-21T04:33:33;20.60;99.90
4874;DHT22;2451;49.970;9.068;2022-07-21T04:35:58;20.60;99.90
4874;DHT22;2451;49.970;9.068;2022-07-21T04:38:24;20.70;99.90
4874;DHT22;2451;49.970;9.068;2022-07-21T04:40:49;20.70;99.90
4874;DHT22;2451;49.970;9.068;2022-07-21T04:43:15;20.70;99.90
4874;DHT22;2451;49.970;9.068;2022-07-21T04:45:41;20.60;99.90
4874;DHT22;2451;49.970;9.068;2022-07-21T04:48:06;20.60;99.90
4874;DHT22;2451;49.970;9.068;2022-07-21T04:50:32;20.60;99.90
4874;DHT22;2451;49.970;9.068;2022-07-21T04:52:58;20.70;99.90
4874;DHT22;2451;49.970;9.068;2022-07-21T04:55:24;20.70;99.90
4874;DHT22;2451;49.970;9.068;2022-07-21T04:57:51;20.70;99.90
4874;DHT22;2451;49.970;9.068;2022-07-21T05:00:20;20.70;99.90
4874;DHT22;2451;49.970;9.068;2022-07-21T05:02:46;20.70;99.90
4874;DHT22;2451;49.970;9.068;2022-07-21T05:05:12;20.70;99.90
4874;DHT22;2451;49.970;9.068;2022-07-21T05:07:38;20.70;99.90
4874;DHT22;2451;49.970;9.068;2022-07-21T05:10:08;20.70;99.90
4874;DHT22;2451;49.970;9.068;2022-07-21T05:12:35;20.70;99.90
4874;DHT22;2451;49.970;9.068;2022-07-21T05:15:01;20.70;99.90
4874;DHT22;2451;49.970;9.068;2022-07-21T05:17:26;20.70;99.90
4874;DHT22;2451;49.970;9.068;2022-07-21T05:19:52;20.70;99.90
4874;DHT22;2451;49.970;9.068;2022-07-21T05:22:17;20.70;99.90
4874;DHT22;2451;49.970;9.068;2022-07-21T05:24:43;20.80;99.90
4874;DHT22;2451;49.970;9.068;2022-07-21T05:27:09;20.70;99.90
4874;DHT22;2451;49.970;9.068;2022-07-21T05:29:35;20.70;99.90
4874;DHT22;2451;49.970;9.068;2022-07-21T05:32:00;20.70;99.90
4874;DHT22;2451;49.970;9.068;2022-07-21T05:34:26;20.70;99.90
4874;DHT22;2451;49.970;9.068;2022-07-21T05:36:51;20.70;99.90
4874;DHT22;2451;49.970;9.068;2022-07-21T05:39:18;20.70;99.90
4874;DHT22;2451;49.970;9.068;2022-07-21T05:41:44;20.70;99.90
4874;DHT22;2451;49.970;9.068;2022-07-21T05:44:09;20.60;99.90
4874;DHT22;2451;49.970;9.068;2022-07-21T05:46:35;20.60;99.90
4874;DHT22;2451;49.970;9.068;2022-07-21T05:49:00;20.50;99.90
4874;DHT22;2451;49.970;9.068;2022-07-21T05:51:26;20.60;99.90
4874;DHT22;2451;49.970;9.068;2022-07-21T05:53:51;20.70;99.90
4874;DHT22;2451;49.970;9.068;2022-07-21T05:56:17;20.70;99.90
4874;DHT22;2451;49.970;9.068;2022-07-21T05:58:42;20.80;99.90
4874;DHT22;2451;49.970;9.068;2022-07-21T06:01:08;21.00;99.90
4874;DHT22;2451;49.970;9.068;2022-07-21T06:03:35;21.10;99.90
4874;DHT22;2451;49.970;9.068;2022-07-21T06:06:02;21.20;99.90
4874;DHT22;2451;49.970;9.068;2022-07-21T06:08:28;21.30;99.90
4874;DHT22;2451;49.970;9.068;2022-07-21T06:10:53;21.30;99.90
4874;DHT22;2451;49.970;9.068;2022-07-21T06:13:19;21.40;99.90
4874;DHT22;2451;49.970;9.068;2022-07-21T06:15:44;21.40;99.90
4874;DHT22;2451;49.970;9.068;2022-07-21T06:18:10;21.50;99.90
4874;DHT22;2451;49.970;9.068;2022-07-21T06:20:35;21.50;99.90
4874;DHT22;2451;49.970;9.068;2022-07-21T06:23:01;21.50;99.90
4874;DHT22;2451;49.970;9.068;2022-07-21T06:25:27;21.60;99.90
4874;DHT22;2451;49.970;9.068;2022-07-21T06:27:52;21.70;99.90
4874;DHT22;2451;49.970;9.068;2022-07-21T06:30:18;21.80;99.90
4874;DHT22;2451;49.970;9.068;2022-07-21T06:32:43;21.90;99.90
4874;DHT22;2451;49.970;9.068;2022-07-21T06:35:09;21.90;99.90
4874;DHT22;2451;49.970;9.068;2022-07-21T06:37:35;21.80;99.90
4874;DHT22;2451;49.970;9.068;2022-07-21T06:40:01;21.80;99.90
4874;DHT22;2451;49.970;9.068;2022-07-21T06:42:26;21.90;99.90
4874;DHT22;2451;49.970;9.068;2022-07-21T06:44:52;22.10;99.90
4874;DHT22;2451;49.970;9.068;2022-07-21T06:47:17;22.30;99.90
4874;DHT22;2451;49.970;9.068;2022-07-21T06:49:43;22.40;99.90
4874;DHT22;2451;49.970;9.068;2022-07-21T06:52:08;22.70;99.90
4874;DHT22;2451;49.970;9.068;2022-07-21T06:54:34;22.80;99.90
4874;DHT22;2451;49.970;9.068;2022-07-21T06:56:59;22.80;99.90
4874;DHT22;2451;49.970;9.068;2022-07-21T06:59:25;22.80;99.90
4874;DHT22;2451;49.970;9.068;2022-07-21T07:01:51;22.60;99.90
4874;DHT22;2451;49.970;9.068;2022-07-21T07:04:16;22.50;99.90
4874;DHT22;2451;49.970;9.068;2022-07-21T07:06:42;22.60;99.90
4874;DHT22;2451;49.970;9.068;2022-07-21T07:09:07;22.50;99.90
4874;DHT22;2451;49.970;9.068;2022-07-21T07:11:33;22.50;99.90
4874;DHT22;2451;49.970;9.068;2022-07-21T07:14:00;22.60;99.90
4874;DHT22;2451;49.970;9.068;2022-07-21T07:16:26;22.40;99.90
4874;DHT22;2451;49.970;9.068;2022-07-21T07:18:51;22.40;99.90
4874;DHT22;2451;49.970;9.068;2022-07-21T07:21:17;22.40;99.90
4874;DHT22;2451;49.970;9.068;2022-07-21T07:23:42;22.50;99.90
4874;DHT22;2451;49.970;9.068;2022-07-21T07:26:08;22.50;99.90
4874;DHT22;2451;49.970;9.068;2022-07-21T07:28:34;22.60;99.90
4874;DHT22;2451;49.970;9.068;2022-07-21T07:30:59;22.70;99.90
4874;DHT22;2451;49.970;9.068;2022-07-21T07:33:25;22.70;99.90
4874;DHT22;2451;49.970;9.068;2022-07-21T07:35:51;22.60;99.90
4874;DHT22;2451;49.970;9.068;2022-07-21T07:38:17;22.50;99.90
4874;DHT22;2451;49.970;9.068;2022-07-21T07:40:43;22.50;99.90
4874;DHT22;2451;49.970;9.068;2022-07-21T07:43:09;22.50;99.90
4874;DHT22;2451;49.970;9.068;2022-07-21T07:45:35;22.50;99.90
4874;DHT22;2451;49.970;9.068;2022-07-21T07:48:01;22.50;99.90
4874;DHT22;2451;49.970;9.068;2022-07-21T07:50:26;22.50;99.90
4874;DHT22;2451;49.970;9.068;2022-07-21T07:52:54;22.40;99.90
4874;DHT22;2451;49.970;9.068;2022-07-21T07:55:19;22.30;99.90
4874;DHT22;2451;49.970;9.068;2022-07-21T07:57:45;22.20;99.90
4874;DHT22;2451;49.970;9.068;2022-07-21T08:00:13;22.20;99.90
4874;DHT22;2451;49.970;9.068;2022-07-21T08:02:40;22.20;99.90
4874;DHT22;2451;49.970;9.068;2022-07-21T08:05:06;22.50;99.90
4874;DHT22;2451;49.970;9.068;2022-07-21T08:07:34;23.00;99.90
4874;DHT22;2451;49.970;9.068;2022-07-21T08:09:59;23.60;99.90
4874;DHT22;2451;49.970;9.068;2022-07-21T08:12:25;24.00;99.90
4874;DHT22;2451;49.970;9.068;2022-07-21T08:14:51;24.30;99.90
4874;DHT22;2451;49.970;9.068;2022-07-21T08:17:16;24.40;99.90
4874;DHT22;2451;49.970;9.068;2022-07-21T08:19:43;24.70;99.90
4874;DHT22;2451;49.970;9.068;2022-07-21T08:22:09;24.90;99.90
4874;DHT22;2451;49.970;9.068;2022-07-21T08:24:34;24.60;99.90
4874;DHT22;2451;49.970;9.068;2022-07-21T08:27:00;24.40;99.90
4874;DHT22;2451;49.970;9.068;2022-07-21T08:29:25;24.40;99.90
4874;DHT22;2451;49.970;9.068;2022-07-21T08:31:51;24.30;99.90
4874;DHT22;2451;49.970;9.068;2022-07-21T08:34:17;24.20;99.90
4874;DHT22;2451;49.970;9.068;2022-07-21T08:36:42;24.00;99.90
4874;DHT22;2451;49.970;9.068;2022-07-21T08:39:08;23.80;99.90
4874;DHT22;2451;49.970;9.068;2022-07-21T08:41:35;23.80;99.90
4874;DHT22;2451;49.970;9.068;2022-07-21T08:44:01;23.90;99.90
4874;DHT22;2451;49.970;9.068;2022-07-21T08:46:28;24.00;99.90
4874;DHT22;2451;49.970;9.068;2022-07-21T08:48:54;24.20;99.90
4874;DHT22;2451;49.970;9.068;2022-07-21T08:51:19;24.40;99.90
4874;DHT22;2451;49.970;9.068;2022-07-21T08:53:46;24.80;99.90
4874;DHT22;2451;49.970;9.068;2022-07-21T08:56:12;25.30;99.90
4874;DHT22;2451;49.970;9.068;2022-07-21T08:58:37;25.50;99.90
4874;DHT22;2451;49.970;9.068;2022-07-21T09:01:03;25.40;99.90
4874;DHT22;2451;49.970;9.068;2022-07-21T09:03:29;25.20;99.90
4874;DHT22;2451;49.970;9.068;2022-07-21T09:06:07;24.80;99.90
4874;DHT22;2451;49.970;9.068;2022-07-21T09:11:13;23.90;99.90
4874;DHT22;2451;49.970;9.068;2022-07-21T09:13:41;23.50;99.90
4874;DHT22;2451;49.970;9.068;2022-07-21T09:16:07;23.00;99.90
4874;DHT22;2451;49.970;9.068;2022-07-21T09:18:32;22.70;99.90
4874;DHT22;2451;49.970;9.068;2022-07-21T09:20:58;22.40;99.90
4874;DHT22;2451;49.970;9.068;2022-07-21T09:23:25;22.30;99.90
4874;DHT22;2451;49.970;9.068;2022-07-21T09:25:53;22.20;99.90
4874;DHT22;2451;49.970;9.068;2022-07-21T09:28:22;22.10;99.90
4874;DHT22;2451;49.970;9.068;2022-07-21T09:33:36;22.20;99.90
4874;DHT22;2451;49.970;9.068;2022-07-21T09:36:05;22.30;99.90
4874;DHT22;2451;49.970;9.068;2022-07-21T09:38:33;22.20;99.90
4874;DHT22;2451;49.970;9.068;2022-07-21T09:43:50;22.10;99.90
4874;DHT22;2451;49.970;9.068;2022-07-21T09:46:24;22.00;99.90
4874;DHT22;2451;49.970;9.068;2022-07-21T09:48:53;21.90;99.90
4874;DHT22;2451;49.970;9.068;2022-07-21T09:51:29;22.10;99.90
4874;DHT22;2451;49.970;9.068;2022-07-21T09:54:00;22.20;99.90
4874;DHT22;2451;49.970;9.068;2022-07-21T09:56:29;22.40;99.90
4874;DHT22;2451;49.970;9.068;2022-07-21T09:58:56;22.80;99.90
4874;DHT22;2451;49.970;9.068;2022-07-21T10:01:22;23.20;99.90
4874;DHT22;2451;49.970;9.068;2022-07-21T10:03:49;23.40;99.90
4874;DHT22;2451;49.970;9.068;2022-07-21T10:06:17;23.50;99.90
4874;DHT22;2451;49.970;9.068;2022-07-21T10:08:44;23.60;99.90
4874;DHT22;2451;49.970;9.068;2022-07-21T10:11:10;23.40;99.90
4874;DHT22;2451;49.970;9.068;2022-07-21T10:13:36;23.40;99.90
4874;DHT22;2451;49.970;9.068;2022-07-21T10:16:03;23.30;99.90
4874;DHT22;2451;49.970;9.068;2022-07-21T10:18:33;23.20;99.90
4874;DHT22;2451;49.970;9.068;2022-07-21T10:21:04;23.20;99.90
4874;DHT22;2451;49.970;9.068;2022-07-21T10:23:40;23.20;99.90
4874;DHT22;2451;49.970;9.068;2022-07-21T10:26:07;23.40;99.90
4874;DHT22;2451;49.970;9.068;2022-07-21T10:28:34;23.70;99.90
4874;DHT22;2451;49.970;9.068;2022-07-21T10:31:22;23.80;99.90
4874;DHT22;2451;49.970;9.068;2022-07-21T10:41:49;24.30;99.90
4874;DHT22;2451;49.970;9.068;2022-07-21T10:47:04;24.70;99.90
4874;DHT22;2451;49.970;9.068;2022-07-21T10:49:57;24.70;99.90
4874;DHT22;2451;49.970;9.068;2022-07-21T10:55:13;25.20;99.90
4874;DHT22;2451;49.970;9.068;2022-07-21T10:58:16;25.70;99.90
4874;DHT22;2451;49.970;9.068;2022-07-21T11:03:42;26.90;99.90
4874;DHT22;2451;49.970;9.068;2022-07-21T11:06:24;27.50;99.90
4874;DHT22;2451;49.970;9.068;2022-07-21T11:11:32;27.60;99.90
4874;DHT22;2451;49.970;9.068;2022-07-21T11:19:45;27.60;99.90
4874;DHT22;2451;49.970;9.068;2022-07-21T11:24:39;26.90;99.90
4874;DHT22;2451;49.970;9.068;2022-07-21T11:27:23;27.20;99.90
4874;DHT22;2451;49.970;9.068;2022-07-21T11:29:50;27.40;99.90
4874;DHT22;2451;49.970;9.068;2022-07-21T11:32:16;27.80;99.90
4874;DHT22;2451;49.970;9.068;2022-07-21T11:37:19;28.10;99.90
4874;DHT22;2451;49.970;9.068;2022-07-21T11:39:51;28.30;99.90
4874;DHT22;2451;49.970;9.068;2022-07-21T11:42:17;28.20;99.90
4874;DHT22;2451;49.970;9.068;2022-07-21T11:44:43;28.40;99.90
4874;DHT22;2451;49.970;9.068;2022-07-21T11:47:14;28.40;99.90
4874;DHT22;2451;49.970;9.068;2022-07-21T11:49:41;28.60;99.90
4874;DHT22;2451;49.970;9.068;2022-07-21T11:52:14;28.40;99.90
4874;DHT22;2451;49.970;9.068;2022-07-21T11:54:51;28.90;99.90
4874;DHT22;2451;49.970;9.068;2022-07-21T11:57:18;29.20;99.90
4874;DHT22;2451;49.970;9.068;2022-07-21T11:59:45;29.40;99.90
4874;DHT22;2451;49.970;9.068;2022-07-21T12:02:17;29.80;99.90
4874;DHT22;2451;49.970;9.068;2022-07-21T12:04:52;30.10;99.90
4874;DHT22;2451;49.970;9.068;2022-07-21T12:07:22;29.90;98.90
4874;DHT22;2451;49.970;9.068;2022-07-21T12:09:54;29.90;98.50
4874;DHT22;2451;49.970;9.068;2022-07-21T12:12:41;30.10;99.10
4874;DHT22;2451;49.970;9.068;2022-07-21T12:15:14;29.90;96.40
4874;DHT22;2451;49.970;9.068;2022-07-21T12:17:52;29.40;98.70
4874;DHT22;2451;49.970;9.068;2022-07-21T12:20:26;29.60;97.00
4874;DHT22;2451;49.970;9.068;2022-07-21T12:22:52;29.90;97.20
4874;DHT22;2451;49.970;9.068;2022-07-21T12:25:30;29.80;95.50
4874;DHT22;2451;49.970;9.068;2022-07-21T12:27:56;30.00;94.80
4874;DHT22;2451;49.970;9.068;2022-07-21T12:30:40;29.80;93.40
4874;DHT22;2451;49.970;9.068;2022-07-21T12:33:14;29.50;94.90
4874;DHT22;2451;49.970;9.068;2022-07-21T12:35:43;29.70;94.50
4874;DHT22;2451;49.970;9.068;2022-07-21T12:38:12;29.40;93.80
4874;DHT22;2451;49.970;9.068;2022-07-21T12:40:41;29.40;94.10
4874;DHT22;2451;49.970;9.068;2022-07-21T12:43:14;29.60;93.80
4874;DHT22;2451;49.970;9.068;2022-07-21T12:51:01;29.80;90.90
4874;DHT22;2451;49.970;9.068;2022-07-21T12:53:28;30.00;91.50
4874;DHT22;2451;49.970;9.068;2022-07-21T12:55:54;29.90;90.00
4874;DHT22;2451;49.970;9.068;2022-07-21T12:58:20;30.10;87.40
4874;DHT22;2451;49.970;9.068;2022-07-21T13:00:46;30.10;88.20
4874;DHT22;2451;49.970;9.068;2022-07-21T13:03:12;29.80;87.00
4874;DHT22;2451;49.970;9.068;2022-07-21T13:05:38;29.90;88.80
4874;DHT22;2451;49.970;9.068;2022-07-21T13:08:03;30.20;89.00
4874;DHT22;2451;49.970;9.068;2022-07-21T13:10:29;30.30;85.30
4874;DHT22;2451;49.970;9.068;2022-07-21T13:12:55;30.30;85.80
4874;DHT22;2451;49.970;9.068;2022-07-21T13:15:20;30.10;84.50
4874;DHT22;2451;49.970;9.068;2022-07-21T13:17:46;29.60;84.00
4874;DHT22;2451;49.970;9.068;2022-07-21T13:20:13;29.10;86.10
4874;DHT22;2451;49.970;9.068;2022-07-21T13:22:39;28.80;87.40
4874;DHT22;2451;49.970;9.068;2022-07-21T13:25:05;28.50;88.10
4874;DHT22;2451;49.970;9.068;2022-07-21T13:27:32;28.30;90.00
4874;DHT22;2451;49.970;9.068;2022-07-21T13:29:59;28.00;89.20
4874;DHT22;2451;49.970;9.068;2022-07-21T13:32:24;27.70;89.80
4874;DHT22;2451;49.970;9.068;2022-07-21T13:34:50;27.50;90.40
4874;DHT22;2451;49.970;9.068;2022-07-21T13:37:16;27.40;91.00
4874;DHT22;2451;49.970;9.068;2022-07-21T13:39:41;27.20;91.20
4874;DHT22;2451;49.970;9.068;2022-07-21T13:42:07;27.10;91.90
4874;DHT22;2451;49.970;9.068;2022-07-21T13:44:33;27.00;91.80
4874;DHT22;2451;49.970;9.068;2022-07-21T13:46:59;26.90;92.30
4874;DHT22;2451;49.970;9.068;2022-07-21T13:49:25;26.90;92.80
4874;DHT22;2451;49.970;9.068;2022-07-21T13:51:50;27.10;93.40
4874;DHT22;2451;49.970;9.068;2022-07-21T13:54:16;27.50;92.60
4874;DHT22;2451;49.970;9.068;2022-07-21T13:56:42;28.10;92.20
4874;DHT22;2451;49.970;9.068;2022-07-21T13:59:07;28.60;90.90
4874;DHT22;2451;49.970;9.068;2022-07-21T14:01:33;29.10;92.00
4874;DHT22;2451;49.970;9.068;2022-07-21T14:03:58;29.40;87.20
4874;DHT22;2451;49.970;9.068;2022-07-21T14:06:24;29.70;88.30
4874;DHT22;2451;49.970;9.068;2022-07-21T14:08:49;29.70;85.80
4874;DHT22;2451;49.970;9.068;2022-07-21T14:11:15;29.80;83.50
4874;DHT22;2451;49.970;9.068;2022-07-21T14:13:41;29.90;86.10
4874;DHT22;2451;49.970;9.068;2022-07-21T14:16:07;29.80;85.40
4874;DHT22;2451;49.970;9.068;2022-07-21T14:18:33;29.80;85.60
4874;DHT22;2451;49.970;9.068;2022-07-21T14:20:59;29.90;85.70
4874;DHT22;2451;49.970;9.068;2022-07-21T14:23:25;30.00;84.90
4874;DHT22;2451;49.970;9.068;2022-07-21T14:25:52;30.20;84.90
4874;DHT22;2451;49.970;9.068;2022-07-21T14:28:18;30.10;84.30
4874;DHT22;2451;49.970;9.068;2022-07-21T14:30:44;29.80;84.00
4874;DHT22;2451;49.970;9.068;2022-07-21T14:33:09;29.40;84.10
4874;DHT22;2451;49.970;9.068;2022-07-21T14:35:35;29.30;86.10
4874;DHT22;2451;49.970;9.068;2022-07-21T14:38:01;29.00;85.90
4874;DHT22;2451;49.970;9.068;2022-07-21T14:40:28;28.70;87.00
4874;DHT22;2451;49.970;9.068;2022-07-21T14:42:54;28.60;88.20
4874;DHT22;2451;49.970;9.068;2022-07-21T14:45:21;28.30;86.40
4874;DHT22;2451;49.970;9.068;2022-07-21T14:47:47;28.20;88.70
4874;DHT22;2451;49.970;9.068;2022-07-21T14:50:14;28.00;88.20
4874;DHT22;2451;49.970;9.068;2022-07-21T14:52:40;27.90;89.10
4874;DHT22;2451;49.970;9.068;2022-07-21T14:55:07;27.80;89.80
4874;DHT22;2451;49.970;9.068;2022-07-21T14:57:33;27.80;89.20
4874;DHT22;2451;49.970;9.068;2022-07-21T14:59:59;27.80;89.30
4874;DHT22;2451;49.970;9.068;2022-07-21T15:02:24;28.20;89.50
4874;DHT22;2451;49.970;9.068;2022-07-21T15:04:50;28.40;87.40
4874;DHT22;2451;49.970;9.068;2022-07-21T15:07:16;28.30;86.60
4874;DHT22;2451;49.970;9.068;2022-07-21T15:09:42;28.10;88.10
4874;DHT22;2451;49.970;9.068;2022-07-21T15:12:08;28.10;88.70
4874;DHT22;2451;49.970;9.068;2022-07-21T15:14:34;27.90;89.90
4874;DHT22;2451;49.970;9.068;2022-07-21T15:16:59;27.80;90.20
4874;DHT22;2451;49.970;9.068;2022-07-21T15:19:25;27.70;89.60
4874;DHT22;2451;49.970;9.068;2022-07-21T15:21:50;27.70;90.20
4874;DHT22;2451;49.970;9.068;2022-07-21T15:24:16;27.60;90.00
4874;DHT22;2451;49.970;9.068;2022-07-21T15:26:43;27.50;89.80
4874;DHT22;2451;49.970;9.068;2022-07-21T15:29:08;27.50;90.90
4874;DHT22;2451;49.970;9.068;2022-07-21T15:31:34;27.50;90.50
4874;DHT22;2451;49.970;9.068;2022-07-21T15:34:00;27.50;89.20
4874;DHT22;2451;49.970;9.068;2022-07-21T15:36:26;27.50;89.50
4874;DHT22;2451;49.970;9.068;2022-07-21T15:38:52;27.50;89.60
4874;DHT22;2451;49.970;9.068;2022-07-21T15:41:18;27.50;89.80
4874;DHT22;2451;49.970;9.068;2022-07-21T15:43:43;27.50;88.70
4874;DHT22;2451;49.970;9.068;2022-07-21T15:46:09;27.50;87.60
4874;DHT22;2451;49.970;9.068;2022-07-21T15:48:35;27.40;87.40
4874;DHT22;2451;49.970;9.068;2022-07-21T15:51:01;27.40;88.50
4874;DHT22;2451;49.970;9.068;2022-07-21T15:53:28;27.40;87.70
4874;DHT22;2451;49.970;9.068;2022-07-21T15:55:54;27.30;88.00
4874;DHT22;2451;49.970;9.068;2022-07-21T15:58:19;27.30;89.10
4874;DHT22;2451;49.970;9.068;2022-07-21T16:00:45;27.40;87.70
4874;DHT22;2451;49.970;9.068;2022-07-21T16:03:10;27.50;87.80
4874;DHT22;2451;49.970;9.068;2022-07-21T16:05:36;27.60;87.10
4874;DHT22;2451;49.970;9.068;2022-07-21T16:08:01;27.60;87.70
4874;DHT22;2451;49.970;9.068;2022-07-21T16:10:27;27.60;88.30
4874;DHT22;2451;49.970;9.068;2022-07-21T16:12:53;27.60;90.10
4874;DHT22;2451;49.970;9.068;2022-07-21T16:15:20;27.60;88.00
4874;DHT22;2451;49.970;9.068;2022-07-21T16:17:47;27.50;88.90
4874;DHT22;2451;49.970;9.068;2022-07-21T16:20:13;27.50;89.50
4874;DHT22;2451;49.970;9.068;2022-07-21T16:22:39;27.50;89.80
4874;DHT22;2451;49.970;9.068;2022-07-21T16:25:10;27.40;89.50
4874;DHT22;2451;49.970;9.068;2022-07-21T16:27:36;27.40;89.70
4874;DHT22;2451;49.970;9.068;2022-07-21T16:30:03;27.40;89.50
4874;DHT22;2451;49.970;9.068;2022-07-21T16:32:28;27.40;89.60
4874;DHT22;2451;49.970;9.068;2022-07-21T16:34:54;27.40;90.00
4874;DHT22;2451;49.970;9.068;2022-07-21T16:37:19;27.30;90.10
4874;DHT22;2451;49.970;9.068;2022-07-21T16:39:45;27.30;90.60
4874;DHT22;2451;49.970;9.068;2022-07-21T16:42:11;27.20;90.60